Time;durP1;ratioP1;P1;durP2;ratioP2;P2;SDS_P1;SDS_P2;PMS_P1;PMS_P2;Temp;Humidity;BMP_temperature;BMP_pressure;BME280_temperature;BME280_humidity;BME280_pressure;Samples;Min_cycle;Max_cycle;Signal;HPM_P1;HPM_P2
2021/03/05 00:01:03;;;;;;;21.47;4.13;;;6.00;99.90;;;;;;5070528;28;20183;-84
2021/03/05 00:03:29;;;;;;;17.83;4.20;;;5.80;99.90;;;;;;5085479;28;20179;-84
2021/03/05 00:05:55;;;;;;;21.97;4.40;;;5.60;99.90;;;;;;5069766;28;20175;-84
2021/03/05 00:08:21;;;;;;;18.87;4.27;;;5.80;99.90;;;;;;5085174;28;20618;-84
2021/03/05 00:10:47;;;;;;;19.80;4.10;;;6.00;99.90;;;;;;5127641;27;20778;-85
2021/03/05 00:13:13;;;;;;;18.13;4.30;;;6.00;99.90;;;;;;5113281;27;20182;-85
2021/03/05 00:15:42;;;;;;;17.67;3.93;;;5.90;99.90;;;;;;5108640;27;20187;-85
2021/03/05 00:18:09;;;;;;;20.70;4.40;;;6.10;99.90;;;;;;5134205;27;20205;-84
2021/03/05 00:20:38;;;;;;;22.90;4.50;;;6.00;99.90;;;;;;5095509;27;20189;-84
2021/03/05 00:23:04;;;;;;;18.30;4.17;;;5.70;99.90;;;;;;5131310;27;20181;-84
2021/03/05 00:25:30;;;;;;;21.13;3.90;;;5.90;99.90;;;;;;5114748;27;20272;-84
2021/03/05 00:27:56;;;;;;;20.83;4.60;;;5.80;99.90;;;;;;5128356;27;20278;-84
2021/03/05 00:30:22;;;;;;;16.63;3.47;;;5.60;99.90;;;;;;5113666;27;20189;-83
2021/03/05 00:32:48;;;;;;;19.13;4.20;;;5.70;99.90;;;;;;5109012;27;20631;-83
2021/03/05 00:35:16;;;;;;;20.17;4.00;;;5.70;99.90;;;;;;5124060;27;20210;-83
2021/03/05 00:37:42;;;;;;;20.97;3.67;;;5.80;99.90;;;;;;5100351;27;20193;-84
2021/03/05 00:40:13;;;;;;;18.63;4.10;;;5.80;99.90;;;;;;5109125;27;20176;-83
2021/03/05 00:42:40;;;;;;;21.27;4.20;;;5.80;99.90;;;;;;5121816;27;20199;-83
2021/03/05 00:45:08;;;;;;;26.03;4.50;;;5.80;99.90;;;;;;5105664;28;20275;-84
2021/03/05 00:47:34;;;;;;;20.17;4.23;;;5.80;99.90;;;;;;5104907;27;20186;-83
2021/03/05 00:50:02;;;;;;;22.60;4.40;;;5.80;99.90;;;;;;5096537;27;20224;-84
2021/03/05 00:52:28;;;;;;;16.93;3.53;;;5.80;99.90;;;;;;5097171;27;20183;-84
2021/03/05 00:54:54;;;;;;;17.27;3.80;;;5.80;99.90;;;;;;5127787;27;20185;-84
2021/03/05 00:57:20;;;;;;;20.47;4.70;;;5.60;99.90;;;;;;5114747;27;20180;-84
2021/03/05 00:59:45;;;;;;;19.47;4.13;;;5.50;99.90;;;;;;5094663;27;20666;-84
2021/03/05 01:02:11;;;;;;;15.90;3.77;;;5.40;99.90;;;;;;5095501;27;20327;-84
2021/03/05 01:04:37;;;;;;;21.73;4.60;;;5.70;99.90;;;;;;5107453;27;20174;-84
2021/03/05 01:07:03;;;;;;;13.10;4.27;;;5.70;99.90;;;;;;5113061;27;20178;-83
2021/03/05 01:09:31;;;;;;;17.83;4.23;;;5.80;99.90;;;;;;5106333;27;20232;-83
2021/03/05 01:11:57;;;;;;;23.13;4.00;;;5.80;99.90;;;;;;5111828;27;20180;-84
2021/03/05 01:14:23;;;;;;;16.60;3.77;;;5.90;99.90;;;;;;5127512;27;20683;-84
2021/03/05 01:16:48;;;;;;;18.80;4.33;;;6.00;99.90;;;;;;5108461;27;20190;-83
2021/03/05 01:19:15;;;;;;;22.93;3.80;;;6.10;99.90;;;;;;5108085;27;20212;-84
2021/03/05 01:21:42;;;;;;;23.23;4.13;;;6.10;99.90;;;;;;5095919;27;20633;-84
2021/03/05 01:24:09;;;;;;;21.33;4.20;;;5.90;99.90;;;;;;5109219;27;20184;-84
2021/03/05 01:26:35;;;;;;;18.80;4.50;;;5.90;99.90;;;;;;5131940;27;20203;-84
2021/03/05 01:29:01;;;;;;;15.60;3.90;;;5.70;99.90;;;;;;5106288;27;20186;-84
2021/03/05 01:31:27;;;;;;;14.53;4.10;;;5.50;99.90;;;;;;5115580;27;20179;-84
2021/03/05 01:33:52;;;;;;;18.40;4.63;;;5.30;99.90;;;;;;5131381;27;20653;-84
2021/03/05 01:36:18;;;;;;;21.70;4.57;;;5.30;99.90;;;;;;5108416;27;20188;-84
2021/03/05 01:38:44;;;;;;;17.07;4.70;;;5.40;99.90;;;;;;5108887;27;20621;-84
2021/03/05 01:41:10;;;;;;;14.60;4.30;;;5.40;99.90;;;;;;5126535;27;20188;-83
2021/03/05 01:43:39;;;;;;;16.00;3.63;;;5.50;99.90;;;;;;5103019;27;20162;-84
2021/03/05 01:46:06;;;;;;;17.03;4.33;;;5.50;99.90;;;;;;5109381;27;20257;-83
2021/03/05 01:48:32;;;;;;;18.17;5.50;;;5.40;99.90;;;;;;5107137;27;20195;-83
2021/03/05 01:51:11;;;;;;;19.00;5.23;;;5.40;99.90;;;;;;5113303;27;20215;-84
2021/03/05 01:53:38;;;;;;;18.17;5.57;;;5.30;99.90;;;;;;5104868;27;20188;-84
2021/03/05 01:56:05;;;;;;;17.27;5.67;;;5.20;99.90;;;;;;5126989;27;20186;-84
2021/03/05 01:58:31;;;;;;;18.63;5.47;;;5.20;99.90;;;;;;5108271;27;20205;-83
2021/03/05 02:01:06;;;;;;;18.73;6.30;;;5.30;99.90;;;;;;5105584;27;20178;-84
2021/03/05 02:03:32;;;;;;;19.20;5.83;;;5.30;99.90;;;;;;5108962;27;20173;-85
2021/03/05 02:05:58;;;;;;;18.50;6.60;;;5.20;99.90;;;;;;5123424;27;20210;-84
2021/03/05 02:08:24;;;;;;;19.80;7.77;;;5.30;99.90;;;;;;5092317;27;20215;-83
2021/03/05 02:10:50;;;;;;;20.47;6.70;;;5.20;99.90;;;;;;5129448;27;20219;-83
2021/03/05 02:13:16;;;;;;;20.73;8.13;;;5.10;99.90;;;;;;5104501;28;20181;-83
2021/03/05 02:15:42;;;;;;;19.60;7.43;;;5.10;99.90;;;;;;5106416;27;20562;-83
2021/03/05 02:18:27;;;;;;;24.17;7.43;;;5.10;99.90;;;;;;5121059;27;20215;-83
2021/03/05 02:21:24;;;;;;;24.20;8.33;;;5.10;99.90;;;;;;5110739;28;20644;-83
2021/03/05 02:24:01;;;;;;;19.63;6.47;;;5.10;99.90;;;;;;5104603;27;20605;-83
2021/03/05 02:26:36;;;;;;;20.07;6.90;;;5.00;99.90;;;;;;5108728;27;20188;-84
2021/03/05 02:29:07;;;;;;;23.37;6.50;;;5.00;99.90;;;;;;5125433;27;20235;-84
2021/03/05 02:32:28;;;;;;;17.30;6.80;;;5.10;99.90;;;;;;5129481;27;20289;-81
2021/03/05 02:34:55;;;;;;;25.57;7.03;;;5.30;99.90;;;;;;5105942;27;20189;-82
2021/03/05 02:37:23;;;;;;;20.47;6.40;;;5.50;99.90;;;;;;5123044;27;20192;-85
2021/03/05 02:40:07;;;;;;;17.37;5.93;;;5.70;99.90;;;;;;5123936;27;20196;-84
2021/03/05 02:42:45;;;;;;;16.53;5.27;;;5.80;99.90;;;;;;5123123;27;20667;-83
2021/03/05 02:45:17;;;;;;;17.00;5.40;;;5.50;99.90;;;;;;5105688;28;20193;-85
2021/03/05 02:47:46;;;;;;;15.67;4.80;;;5.50;99.90;;;;;;5111005;28;20201;-82
2021/03/05 02:50:16;;;;;;;16.33;4.33;;;5.60;99.90;;;;;;5121045;28;20546;-83
2021/03/05 02:52:43;;;;;;;15.00;4.10;;;5.80;99.90;;;;;;5124754;28;20208;-83
2021/03/05 02:55:11;;;;;;;13.50;3.93;;;5.90;99.90;;;;;;5091932;28;20639;-83
2021/03/05 02:57:45;;;;;;;11.73;4.07;;;5.80;99.90;;;;;;5107307;28;20264;-83
2021/03/05 03:00:13;;;;;;;13.23;3.97;;;5.70;99.90;;;;;;5089262;28;20239;-83
2021/03/05 03:02:40;;;;;;;14.40;4.83;;;5.80;99.90;;;;;;5110086;28;20181;-83
2021/03/05 03:05:07;;;;;;;13.30;4.23;;;5.80;99.90;;;;;;5104966;28;20189;-83
2021/03/05 03:07:34;;;;;;;13.80;4.27;;;5.90;99.90;;;;;;5093863;28;20728;-83
2021/03/05 03:10:00;;;;;;;16.90;4.80;;;5.90;99.90;;;;;;5105644;27;20222;-83
2021/03/05 03:12:27;;;;;;;13.30;4.60;;;5.80;99.90;;;;;;5081720;28;20184;-84
2021/03/05 03:14:53;;;;;;;16.00;4.67;;;6.00;99.90;;;;;;5079309;28;20189;-84
2021/03/05 03:17:20;;;;;;;11.80;4.07;;;5.90;99.90;;;;;;5083984;28;20179;-83
2021/03/05 03:19:51;;;;;;;15.80;4.53;;;5.90;99.90;;;;;;5080248;28;20596;-83
2021/03/05 03:22:17;;;;;;;19.97;4.80;;;6.00;99.90;;;;;;5086803;28;20184;-83
2021/03/05 03:24:43;;;;;;;16.67;4.70;;;6.10;99.90;;;;;;5086953;28;20265;-84
2021/03/05 03:27:09;;;;;;;16.30;4.50;;;6.00;99.90;;;;;;5084960;28;20263;-83
2021/03/05 03:29:35;;;;;;;15.00;4.60;;;5.70;99.90;;;;;;5089860;28;20258;-83
2021/03/05 03:32:00;;;;;;;16.43;4.97;;;5.50;99.90;;;;;;5064537;28;20186;-83
2021/03/05 03:34:26;;;;;;;19.83;5.63;;;5.40;99.90;;;;;;5064579;28;20209;-83
2021/03/05 03:36:55;;;;;;;13.73;4.50;;;5.60;99.90;;;;;;5083961;28;20237;-83
2021/03/05 03:39:23;;;;;;;22.33;4.87;;;5.50;99.90;;;;;;5064514;28;20537;-83
2021/03/05 03:41:49;;;;;;;15.97;4.80;;;5.30;99.90;;;;;;5089715;28;20649;-83
2021/03/05 03:44:15;;;;;;;15.50;4.60;;;5.40;99.90;;;;;;5058189;28;20335;-83
2021/03/05 03:46:48;;;;;;;20.87;4.77;;;5.30;99.90;;;;;;5065051;28;20552;-83
2021/03/05 03:49:25;;;;;;;17.87;5.07;;;5.40;99.90;;;;;;5056715;28;20182;-83
2021/03/05 03:51:56;;;;;;;18.17;4.87;;;5.50;99.90;;;;;;5057125;28;20189;-83
2021/03/05 03:54:23;;;;;;;17.80;4.23;;;5.60;99.90;;;;;;5079382;28;20197;-83
2021/03/05 03:56:54;;;;;;;16.70;5.00;;;5.60;99.90;;;;;;5092406;28;20704;-83
2021/03/05 03:59:22;;;;;;;20.77;5.27;;;5.50;99.90;;;;;;5074357;28;20272;-83
2021/03/05 04:01:49;;;;;;;17.90;5.10;;;5.50;99.90;;;;;;5072234;28;20590;-83
2021/03/05 04:04:16;;;;;;;16.27;4.63;;;5.50;99.90;;;;;;5069250;28;20190;-83
2021/03/05 04:06:48;;;;;;;17.80;5.47;;;5.30;99.90;;;;;;5088043;28;20207;-83
2021/03/05 04:09:16;;;;;;;17.97;5.40;;;5.30;99.90;;;;;;5094589;28;20241;-83
2021/03/05 04:11:42;;;;;;;16.43;4.87;;;5.30;99.90;;;;;;5095204;28;20210;-83
2021/03/05 04:14:08;;;;;;;17.17;5.00;;;5.10;99.90;;;;;;5091376;28;20258;-83
2021/03/05 04:16:34;;;;;;;18.10;5.00;;;5.10;99.90;;;;;;5086999;28;20197;-83
2021/03/05 04:19:00;;;;;;;20.77;5.77;;;5.10;99.90;;;;;;5087312;28;20199;-83
2021/03/05 04:21:29;;;;;;;16.70;5.65;;;5.20;99.90;;;;;;5095263;28;20457;-84
2021/03/05 04:23:55;;;;;;;21.37;6.10;;;5.10;99.90;;;;;;5105769;28;20188;-83
2021/03/05 04:26:21;;;;;;;18.03;7.50;;;5.20;99.90;;;;;;5106641;28;20272;-83
2021/03/05 04:28:46;;;;;;;19.73;7.47;;;5.10;99.90;;;;;;5119058;27;20187;-83
2021/03/05 04:31:12;;;;;;;22.13;7.23;;;5.10;99.90;;;;;;5110040;27;20218;-83
2021/03/05 04:33:38;;;;;;;19.10;7.67;;;5.00;99.90;;;;;;5107902;28;20207;-84
2021/03/05 04:36:04;;;;;;;21.87;8.13;;;5.00;99.90;;;;;;5092300;28;20178;-83
2021/03/05 04:38:30;;;;;;;21.30;7.90;;;5.00;99.90;;;;;;5090341;28;20208;-83
2021/03/05 04:40:55;;;;;;;19.97;7.83;;;4.90;99.90;;;;;;5091039;28;20225;-83
2021/03/05 04:43:21;;;;;;;22.60;10.63;;;4.80;99.90;;;;;;5083286;28;20920;-83
2021/03/05 04:45:47;;;;;;;19.00;8.50;;;4.80;99.90;;;;;;5089215;28;20183;-84
2021/03/05 04:48:13;;;;;;;20.67;9.23;;;4.90;99.90;;;;;;5077365;28;20583;-84
2021/03/05 04:50:38;;;;;;;21.40;8.47;;;4.80;99.90;;;;;;5072939;28;20190;-83
2021/03/05 04:53:05;;;;;;;22.27;8.50;;;4.80;99.90;;;;;;5083823;28;20192;-83
2021/03/05 04:55:31;;;;;;;21.40;8.83;;;4.90;99.90;;;;;;5093111;28;20533;-84
2021/03/05 04:57:57;;;;;;;17.47;7.93;;;4.80;99.90;;;;;;5089318;28;20206;-83
2021/03/05 05:00:23;;;;;;;25.60;9.60;;;4.70;99.90;;;;;;5108795;28;20181;-83
2021/03/05 05:02:48;;;;;;;18.57;8.43;;;4.70;99.90;;;;;;5087893;28;20194;-83
2021/03/05 05:05:15;;;;;;;19.53;9.17;;;4.70;99.90;;;;;;5075884;28;20184;-83
2021/03/05 05:07:41;;;;;;;22.40;9.10;;;4.70;99.90;;;;;;5073845;28;20190;-83
2021/03/05 05:10:08;;;;;;;21.63;9.70;;;4.70;99.90;;;;;;5073444;28;20770;-82
2021/03/05 05:12:33;;;;;;;20.97;9.40;;;4.90;99.90;;;;;;5066072;28;20707;-82
2021/03/05 05:14:59;;;;;;;22.03;10.00;;;4.80;99.90;;;;;;5065248;28;20183;-82
2021/03/05 05:17:24;;;;;;;21.60;9.10;;;4.70;99.90;;;;;;5085420;28;20191;-82
2021/03/05 05:19:50;;;;;;;23.27;11.10;;;4.60;99.90;;;;;;5089104;28;20289;-82
2021/03/05 05:22:16;;;;;;;24.57;10.60;;;4.60;99.90;;;;;;5086353;28;20181;-82
2021/03/05 05:24:41;;;;;;;24.83;9.53;;;4.60;99.90;;;;;;5093681;28;20192;-82
2021/03/05 05:27:07;;;;;;;21.73;10.37;;;4.50;99.90;;;;;;5084487;28;20247;-83
2021/03/05 05:29:33;;;;;;;26.20;11.53;;;4.50;99.90;;;;;;5068490;28;20186;-83
2021/03/05 05:31:59;;;;;;;20.67;10.83;;;4.50;99.90;;;;;;5071359;28;20236;-83
2021/03/05 05:34:25;;;;;;;24.10;11.40;;;4.50;99.90;;;;;;5089803;28;20551;-83
2021/03/05 05:36:50;;;;;;;23.17;11.20;;;4.60;99.90;;;;;;5091268;28;20239;-83
2021/03/05 05:39:16;;;;;;;22.60;10.50;;;4.60;99.90;;;;;;5076099;28;20204;-83
2021/03/05 05:41:42;;;;;;;22.93;11.30;;;4.50;99.90;;;;;;5072582;28;20189;-83
2021/03/05 05:44:08;;;;;;;25.83;10.83;;;4.50;99.90;;;;;;5081675;28;20187;-83
2021/03/05 05:46:34;;;;;;;21.70;10.90;;;4.50;99.90;;;;;;5075006;28;20176;-83
2021/03/05 05:49:03;;;;;;;22.20;11.03;;;4.60;99.90;;;;;;5070710;28;20198;-82
2021/03/05 05:51:32;;;;;;;22.17;11.57;;;4.50;99.90;;;;;;5067634;28;20212;-83
2021/03/05 05:54:02;;;;;;;23.17;11.27;;;4.60;99.90;;;;;;5073144;28;20204;-82
2021/03/05 05:56:28;;;;;;;23.13;11.30;;;4.60;99.90;;;;;;5089899;28;20205;-83
2021/03/05 05:58:54;;;;;;;22.70;11.20;;;4.60;99.90;;;;;;5086407;28;20687;-83
2021/03/05 06:01:20;;;;;;;21.13;10.27;;;4.50;99.90;;;;;;5072781;28;20229;-82
2021/03/05 06:03:45;;;;;;;18.47;9.67;;;4.50;99.90;;;;;;5087111;28;20190;-83
2021/03/05 06:06:11;;;;;;;20.53;10.23;;;4.50;99.90;;;;;;5090805;28;20205;-83
2021/03/05 06:08:37;;;;;;;21.17;10.90;;;4.50;99.90;;;;;;5085697;28;20186;-82
2021/03/05 06:11:03;;;;;;;19.27;10.40;;;4.30;99.90;;;;;;5072906;28;20231;-83
2021/03/05 06:13:29;;;;;;;23.47;11.33;;;4.30;99.90;;;;;;5072860;28;20214;-83
2021/03/05 06:16:20;;;;;;;21.73;11.37;;;4.20;99.90;;;;;;5070922;28;20199;-83
2021/03/05 06:18:46;;;;;;;20.33;10.17;;;4.00;99.90;;;;;;5085251;28;20223;-84
2021/03/05 06:21:13;;;;;;;23.10;11.70;;;3.90;99.90;;;;;;5069650;28;20198;-84
2021/03/05 06:23:59;;;;;;;22.20;11.27;;;3.90;99.90;;;;;;5072553;28;20180;-83
2021/03/05 06:26:25;;;;;;;20.17;10.93;;;4.00;99.90;;;;;;5088072;28;20329;-84
2021/03/05 06:29:01;;;;;;;21.60;11.13;;;3.80;99.90;;;;;;5067414;28;20590;-83
2021/03/05 06:31:27;;;;;;;21.73;10.63;;;3.80;99.90;;;;;;5054043;28;20192;-82
2021/03/05 06:34:03;;;;;;;22.00;9.17;;;3.80;99.90;;;;;;5084440;28;20547;-82
2021/03/05 06:36:30;;;;;;;19.37;11.07;;;3.60;99.90;;;;;;5084275;28;20655;-83
2021/03/05 06:38:56;;;;;;;21.37;11.00;;;3.50;99.90;;;;;;5091210;28;20291;-82
2021/03/05 06:41:30;;;;;;;20.67;11.20;;;3.60;99.90;;;;;;5072262;28;20212;-83
2021/03/05 06:43:57;;;;;;;23.37;11.27;;;3.60;99.90;;;;;;5069866;28;20586;-83
2021/03/05 06:46:29;;;;;;;19.87;10.33;;;3.60;99.90;;;;;;5069009;28;20184;-84
2021/03/05 06:48:55;;;;;;;24.43;12.30;;;3.60;99.90;;;;;;5066902;28;20191;-84
2021/03/05 06:51:22;;;;;;;21.93;11.07;;;3.70;99.90;;;;;;5067616;28;20194;-84
2021/03/05 06:53:48;;;;;;;22.67;11.50;;;3.90;99.90;;;;;;5071247;28;20196;-85
2021/03/05 06:56:27;;;;;;;22.53;11.43;;;3.90;99.90;;;;;;5056064;28;20190;-84
2021/03/05 06:59:13;;;;;;;25.07;12.10;;;3.90;99.90;;;;;;5070857;28;20214;-85
2021/03/05 07:01:58;;;;;;;21.07;10.93;;;3.90;99.90;;;;;;5087819;28;20225;-85
2021/03/05 07:04:33;;;;;;;23.23;10.57;;;3.70;99.90;;;;;;5067990;28;20176;-85
2021/03/05 07:07:08;;;;;;;22.40;12.00;;;3.70;99.90;;;;;;5085895;28;20166;-85
2021/03/05 07:09:36;;;;;;;21.30;10.50;;;3.70;99.90;;;;;;5077667;28;20307;-84
2021/03/05 07:12:10;;;;;;;20.00;11.13;;;3.70;99.90;;;;;;5088837;28;20217;-84
2021/03/05 07:14:37;;;;;;;21.20;11.33;;;3.90;99.90;;;;;;5109351;28;20189;-83
2021/03/05 07:17:04;;;;;;;21.10;11.10;;;4.40;99.90;;;;;;5090990;28;20176;-84
2021/03/05 07:19:31;;;;;;;19.83;10.37;;;5.10;99.90;;;;;;5076017;28;20200;-85
2021/03/05 07:21:58;;;;;;;19.63;9.30;;;6.10;99.90;;;;;;5090250;28;20669;-85
2021/03/05 07:24:26;;;;;;;19.83;9.67;;;6.60;99.90;;;;;;5088430;28;20579;-85
2021/03/05 07:26:53;;;;;;;18.00;8.97;;;6.90;99.90;;;;;;5091456;28;20167;-85
2021/03/05 07:29:33;;;;;;;15.47;8.07;;;7.60;99.90;;;;;;5080569;28;20664;-86
2021/03/05 07:32:23;;;;;;;18.17;8.50;;;7.90;99.90;;;;;;5078823;28;20182;-86
2021/03/05 07:35:00;;;;;;;15.83;7.67;;;8.10;99.90;;;;;;5093344;27;20273;-85
2021/03/05 07:37:31;;;;;;;18.00;9.10;;;8.10;99.90;;;;;;5093443;28;20186;-85
2021/03/05 07:40:17;;;;;;;18.10;8.10;;;8.20;99.90;;;;;;5090741;28;20199;-85
2021/03/05 07:42:44;;;;;;;15.70;8.57;;;8.20;99.90;;;;;;5077771;28;20193;-85
2021/03/05 07:45:12;;;;;;;15.67;8.10;;;7.60;99.90;;;;;;5090442;28;20178;-86
2021/03/05 07:47:43;;;;;;;19.53;8.13;;;7.00;99.90;;;;;;5077390;28;20178;-85
2021/03/05 07:50:10;;;;;;;17.50;7.67;;;6.30;99.90;;;;;;5074370;28;20193;-85
2021/03/05 07:52:37;;;;;;;16.20;8.17;;;5.80;99.90;;;;;;5095330;28;20179;-84
2021/03/05 07:55:03;;;;;;;15.83;7.47;;;5.60;99.90;;;;;;5093010;28;20209;-85
2021/03/05 07:57:29;;;;;;;17.80;10.17;;;5.70;99.90;;;;;;5091471;28;20189;-85
2021/03/05 07:59:59;;;;;;;16.63;7.17;;;6.20;99.90;;;;;;5077948;28;20651;-85
2021/03/05 08:02:46;;;;;;;14.30;6.87;;;7.00;99.90;;;;;;5078048;28;20224;-86
2021/03/05 08:05:29;;;;;;;15.83;7.00;;;7.50;99.90;;;;;;5108843;28;20182;-85
2021/03/05 08:08:33;;;;;;;16.60;6.90;;;8.10;99.90;;;;;;5077690;28;20219;-86
2021/03/05 08:11:03;;;;;;;16.20;7.27;;;7.60;99.90;;;;;;5036690;28;20200;-85
2021/03/05 08:13:48;;;;;;;14.57;6.93;;;7.20;99.90;;;;;;5037776;28;20190;-85
2021/03/05 08:16:29;;;;;;;17.43;7.33;;;6.80;99.90;;;;;;5078606;28;20286;-84
2021/03/05 08:19:04;;;;;;;15.03;6.00;;;6.10;99.90;;;;;;5089881;27;20239;-86
2021/03/05 08:21:51;;;;;;;14.27;6.27;;;5.50;99.90;;;;;;5091887;28;20174;-84
2021/03/05 08:24:24;;;;;;;14.53;6.53;;;5.40;99.90;;;;;;5094458;28;20192;-85
2021/03/05 08:27:00;;;;;;;15.33;7.13;;;5.40;99.90;;;;;;5087762;28;20612;-85
2021/03/05 08:29:51;;;;;;;16.10;7.13;;;5.30;99.90;;;;;;5077249;28;20650;-85
2021/03/05 08:32:32;;;;;;;15.13;6.80;;;5.20;99.90;;;;;;5087053;28;20542;-85
2021/03/05 08:35:00;;;;;;;13.73;6.13;;;5.20;99.90;;;;;;5093478;28;20245;-84
2021/03/05 08:37:36;;;;;;;16.07;6.13;;;5.20;99.90;;;;;;5089633;28;20180;-85
2021/03/05 08:40:28;;;;;;;13.43;5.77;;;5.20;99.90;;;;;;5091128;28;20186;-85
2021/03/05 08:43:16;;;;;;;14.00;5.90;;;5.10;99.90;;;;;;5075189;28;20188;-85
2021/03/05 08:45:54;;;;;;;16.03;6.63;;;5.20;99.90;;;;;;5110624;28;20179;-86
2021/03/05 08:48:30;;;;;;;11.57;5.00;;;5.10;99.90;;;;;;5093702;28;20192;-86
2021/03/05 08:51:20;;;;;;;11.30;4.53;;;5.10;99.90;;;;;;5118480;28;20174;-83
2021/03/05 08:53:55;;;;;;;15.50;5.47;;;5.10;99.90;;;;;;5076826;28;20288;-85
2021/03/05 08:56:27;;;;;;;12.67;4.97;;;5.10;99.90;;;;;;5076983;28;20188;-86
2021/03/05 08:59:03;;;;;;;9.77;4.73;;;5.30;99.90;;;;;;5075762;28;20213;-86
2021/03/05 09:01:41;;;;;;;12.10;5.30;;;5.40;99.90;;;;;;5085818;28;20282;-85
2021/03/05 09:04:14;;;;;;;10.97;4.73;;;5.50;99.90;;;;;;5092866;28;20185;-85
2021/03/05 09:06:56;;;;;;;11.73;4.93;;;5.40;99.90;;;;;;5093889;28;20280;-86
2021/03/05 09:09:27;;;;;;;11.63;4.93;;;5.50;99.90;;;;;;5084600;28;20238;-85
2021/03/05 09:12:12;;;;;;;13.60;4.47;;;5.50;99.90;;;;;;5068994;28;20186;-85
2021/03/05 09:14:38;;;;;;;10.43;4.33;;;5.60;99.90;;;;;;5073989;28;20242;-86
2021/03/05 09:17:06;;;;;;;12.70;4.63;;;5.50;99.90;;;;;;5068941;28;20189;-86
2021/03/05 09:19:47;;;;;;;12.17;4.10;;;5.50;99.90;;;;;;5095004;28;20206;-85
2021/03/05 09:22:23;;;;;;;9.80;4.03;;;5.50;99.90;;;;;;5076142;28;20177;-86
2021/03/05 09:24:59;;;;;;;10.13;4.07;;;5.50;99.90;;;;;;5056990;28;20177;-85
2021/03/05 09:27:32;;;;;;;8.37;3.53;;;5.50;99.90;;;;;;5061940;28;20184;-86
2021/03/05 09:30:00;;;;;;;8.23;3.50;;;5.50;99.90;;;;;;5059127;28;20204;-85
2021/03/05 09:32:26;;;;;;;8.23;3.60;;;5.60;99.90;;;;;;5076804;28;20190;-85
2021/03/05 09:34:57;;;;;;;8.67;3.57;;;5.70;99.90;;;;;;5074249;28;20179;-86
2021/03/05 09:37:28;;;;;;;13.57;3.17;;;5.70;99.90;;;;;;5074558;28;20197;-86
2021/03/05 09:39:58;;;;;;;7.13;3.20;;;5.70;99.90;;;;;;5075843;28;20203;-86
2021/03/05 09:42:50;;;;;;;7.83;3.10;;;5.50;99.90;;;;;;5061501;28;20180;-86
2021/03/05 09:45:41;;;;;;;8.93;3.30;;;5.40;99.90;;;;;;5071335;28;20184;-86
2021/03/05 09:48:12;;;;;;;9.27;3.40;;;5.50;99.90;;;;;;5071308;28;20700;-86
2021/03/05 09:50:39;;;;;;;8.70;2.73;;;5.70;99.90;;;;;;5074457;28;20195;-86
2021/03/05 09:53:52;;;;;;;7.20;3.07;;;5.40;99.90;;;;;;5072655;28;20244;-86
2021/03/05 09:56:19;;;;;;;5.13;2.17;;;5.50;99.90;;;;;;4978253;28;20265;-86
2021/03/05 09:58:53;;;;;;;7.67;3.10;;;5.60;99.90;;;;;;5066843;28;20289;-86
2021/03/05 10:01:18;;;;;;;5.90;2.60;;;5.60;99.90;;;;;;5056383;28;20214;-86
2021/03/05 10:03:51;;;;;;;7.47;3.07;;;5.70;99.90;;;;;;5053259;28;20181;-86
2021/03/05 10:06:17;;;;;;;7.63;2.50;;;5.60;99.90;;;;;;5056077;28;20189;-86
2021/03/05 10:08:42;;;;;;;8.93;2.40;;;5.80;99.90;;;;;;5070423;28;20192;-86
2021/03/05 10:11:10;;;;;;;8.03;2.70;;;6.20;99.90;;;;;;5073158;28;20216;-86
2021/03/05 10:13:46;;;;;;;5.93;2.00;;;7.00;99.90;;;;;;5055426;28;20183;-86
2021/03/05 10:16:14;;;;;;;6.13;2.20;;;8.30;99.90;;;;;;5087095;28;20602;-86
2021/03/05 10:18:41;;;;;;;5.83;2.10;;;8.60;99.90;;;;;;5047826;28;20279;-86
2021/03/05 10:21:12;;;;;;;8.83;2.60;;;8.70;99.90;;;;;;5055960;28;20241;-86
2021/03/05 10:23:39;;;;;;;7.20;2.40;;;9.00;99.90;;;;;;5055285;28;20196;-85
2021/03/05 10:26:22;;;;;;;6.33;2.27;;;9.10;99.30;;;;;;5067224;28;20249;-87
2021/03/05 10:28:54;;;;;;;5.40;2.03;;;9.10;98.70;;;;;;5070698;28;20204;-86
2021/03/05 10:31:20;;;;;;;7.97;2.43;;;9.20;98.60;;;;;;5057735;28;20196;-86
2021/03/05 10:33:46;;;;;;;4.83;2.30;;;9.30;97.30;;;;;;5085112;28;20183;-86
2021/03/05 10:36:13;;;;;;;6.63;2.40;;;9.50;97.50;;;;;;5074989;28;20203;-86
2021/03/05 10:38:41;;;;;;;7.57;2.30;;;9.70;95.50;;;;;;5067428;28;20204;-86
2021/03/05 10:41:07;;;;;;;10.43;2.63;;;9.60;96.70;;;;;;5071998;28;20266;-86
2021/03/05 10:43:35;;;;;;;12.03;2.73;;;9.60;95.10;;;;;;5067680;28;20183;-86
2021/03/05 10:46:02;;;;;;;9.73;2.40;;;8.70;95.40;;;;;;5066050;28;20175;-86
2021/03/05 10:48:27;;;;;;;7.00;2.37;;;8.80;96.60;;;;;;5054506;28;20183;-86
2021/03/05 10:50:53;;;;;;;6.93;2.47;;;8.90;96.80;;;;;;5067353;28;20180;-86
2021/03/05 10:53:19;;;;;;;9.40;2.50;;;9.00;95.70;;;;;;5051271;28;20190;-85
2021/03/05 10:55:45;;;;;;;5.90;1.97;;;9.40;95.90;;;;;;5069485;28;20668;-86
2021/03/05 10:58:11;;;;;;;6.30;2.50;;;9.90;95.40;;;;;;5052670;28;20784;-87
2021/03/05 11:00:36;;;;;;;9.97;2.33;;;9.90;94.40;;;;;;5054817;28;20259;-86
2021/03/05 11:03:02;;;;;;;11.93;3.23;;;8.90;94.80;;;;;;5084497;28;20184;-86
2021/03/05 11:05:28;;;;;;;5.63;2.60;;;8.20;96.10;;;;;;5060788;28;20190;-85
2021/03/05 11:07:54;;;;;;;5.53;2.23;;;7.90;97.10;;;;;;5058953;28;20175;-86
2021/03/05 11:10:21;;;;;;;10.40;2.80;;;7.90;98.70;;;;;;5088638;27;20217;-87
2021/03/05 11:12:48;;;;;;;8.40;2.53;;;7.90;98.00;;;;;;5098342;27;20177;-86
2021/03/05 11:15:16;;;;;;;6.90;2.20;;;8.00;99.90;;;;;;5096294;27;20177;-86
2021/03/05 11:17:42;;;;;;;9.53;2.70;;;8.20;98.70;;;;;;5112960;27;20234;-86
2021/03/05 11:20:09;;;;;;;5.13;2.37;;;8.00;99.30;;;;;;5097307;27;20231;-87
2021/03/05 11:22:35;;;;;;;6.30;2.60;;;7.80;99.40;;;;;;5109675;27;20189;-87
2021/03/05 11:25:01;;;;;;;5.67;2.20;;;7.70;97.70;;;;;;5098671;27;20175;-88
2021/03/05 11:27:27;;;;;;;6.73;2.40;;;7.40;98.40;;;;;;5108966;27;20539;-87
2021/03/05 11:29:53;;;;;;;7.57;2.20;;;7.10;99.00;;;;;;5110521;27;20174;-87
2021/03/05 11:32:18;;;;;;;6.77;2.20;;;7.10;97.40;;;;;;5095893;27;20725;-88
2021/03/05 11:34:44;;;;;;;7.87;2.27;;;7.00;97.80;;;;;;5103588;27;20182;-87
2021/03/05 11:37:10;;;;;;;8.37;2.70;;;7.00;97.80;;;;;;5102590;27;20210;-86
2021/03/05 11:39:36;;;;;;;6.53;2.40;;;7.00;98.20;;;;;;5121438;27;20622;-86
2021/03/05 11:42:02;;;;;;;6.53;2.47;;;7.10;97.80;;;;;;5109501;27;20178;-87
2021/03/05 11:44:28;;;;;;;8.30;2.47;;;7.20;97.80;;;;;;5115751;27;20247;-87
2021/03/05 11:46:53;;;;;;;8.90;2.50;;;7.60;97.90;;;;;;5101421;27;20641;-87
2021/03/05 11:49:19;;;;;;;7.40;2.50;;;7.90;95.90;;;;;;5101127;27;20652;-87
2021/03/05 11:51:45;;;;;;;5.17;2.13;;;8.00;96.00;;;;;;5097435;27;20604;-86
2021/03/05 11:54:10;;;;;;;7.07;2.33;;;7.90;97.40;;;;;;5096434;28;20178;-87
2021/03/05 11:56:36;;;;;;;5.30;2.00;;;8.10;97.10;;;;;;5093414;27;20661;-81
2021/03/05 11:59:02;;;;;;;8.00;2.57;;;8.30;96.50;;;;;;5109443;27;20202;-81
2021/03/05 12:01:28;;;;;;;10.17;2.90;;;8.70;94.80;;;;;;5106972;27;20199;-82
2021/03/05 12:03:54;;;;;;;5.17;2.27;;;8.80;95.80;;;;;;5107277;27;20173;-81
2021/03/05 12:06:22;;;;;;;6.43;2.23;;;8.90;95.10;;;;;;5106715;27;20179;-81
2021/03/05 12:08:49;;;;;;;5.10;2.10;;;9.10;95.30;;;;;;5112193;27;20193;-80
2021/03/05 12:11:15;;;;;;;6.50;2.20;;;8.80;94.60;;;;;;5109281;27;20223;-80
2021/03/05 12:13:41;;;;;;;7.63;2.47;;;8.80;95.20;;;;;;5112886;27;20185;-81
2021/03/05 12:16:06;;;;;;;6.83;2.27;;;8.80;94.70;;;;;;5115733;27;20198;-81
2021/03/05 12:18:32;;;;;;;6.37;2.30;;;9.10;94.60;;;;;;5101582;28;20266;-81
2021/03/05 12:20:58;;;;;;;6.27;2.43;;;9.30;93.60;;;;;;5114157;27;20194;-81
2021/03/05 12:23:23;;;;;;;5.97;2.20;;;9.80;94.60;;;;;;5127278;27;20204;-81
2021/03/05 12:25:49;;;;;;;5.67;2.20;;;10.30;94.60;;;;;;5113276;27;20187;-81
2021/03/05 12:28:15;;;;;;;6.53;2.50;;;10.20;92.40;;;;;;5125626;27;20195;-81
2021/03/05 12:30:40;;;;;;;4.60;1.93;;;10.40;91.00;;;;;;5109486;27;20188;-79
2021/03/05 12:33:06;;;;;;;4.37;2.07;;;10.30;90.00;;;;;;5109865;27;20200;-81
2021/03/05 12:35:32;;;;;;;6.50;2.30;;;9.60;90.80;;;;;;5107808;27;20262;-81
2021/03/05 12:37:57;;;;;;;6.33;2.33;;;9.70;91.80;;;;;;5112224;27;20190;-81
2021/03/05 12:40:23;;;;;;;4.93;1.90;;;10.00;91.60;;;;;;5113158;27;20273;-81
2021/03/05 12:42:54;;;;;;;5.43;1.90;;;10.50;90.80;;;;;;5094338;27;20177;-80
2021/03/05 12:45:20;;;;;;;7.13;2.30;;;10.50;84.80;;;;;;5113164;27;20523;-80
2021/03/05 12:47:46;;;;;;;4.87;1.90;;;10.50;86.40;;;;;;5124986;27;20188;-81
2021/03/05 12:50:12;;;;;;;5.33;1.80;;;10.40;86.90;;;;;;5113120;27;20191;-81
2021/03/05 12:52:37;;;;;;;6.67;2.10;;;10.50;82.20;;;;;;5095902;27;20179;-80
2021/03/05 12:55:04;;;;;;;6.20;1.73;;;10.30;80.70;;;;;;5123869;27;20180;-81
2021/03/05 12:57:29;;;;;;;4.70;1.80;;;10.40;80.50;;;;;;5090533;27;20207;-81
2021/03/05 12:59:55;;;;;;;4.07;1.77;;;10.00;80.60;;;;;;5105797;27;20239;-80